Sabrina — WDD7267 — position and weather

sailwx.info

Track history (hours):
 
Tides and Currents Weather Stations Pressure Air Temp Water Temp Dewpoint Dewpoint Depression Visibility Wind Speed Wind Dir Waves Ship Positions

Sabrina

Owner: Reynolds, Norman J, San Diego, CA. More information available from US FCC via Universal Licensing System and Coast Guard Vessel Documentation Center.

Last reported at 2017-Oct-01 23:56 UTC. Time now 2017-Nov-21 20:56 UTC.
Position N 32°41' W 117°18'.
Warning: this ship's position is 50 days out of date.

Length 16 m.

Type: Sailing vessel. MMSI: 367184090.

Date/timePositionNaut miles runAvg speedWind from/ knotsBaromVisibWave heightAir tempDewpointWater temp
2017-Oct-01 23:56N 32°41' W 117°18'3 7.9
2017-Oct-01 23:31N 32°44' W 117°21'4 8.0
2017-Oct-01 23:00N 32°47' W 117°25'4 8.1
2017-Oct-01 22:31N 32°50' W 117°28'4 8.2
2017-Oct-01 22:00N 32°53' W 117°32'4 8.0
2017-Oct-01 21:30N 32°55' W 117°35'4 7.9
2017-Oct-01 21:00N 32°58' W 117°38'4 8.0
2017-Oct-01 20:31N 33°01' W 117°41'4 7.9
2017-Oct-01 20:00N 33°04' W 117°45'  
2017-Sep-28 22:52N 33°23' W 118°22'0 0.0
2017-Sep-28 22:25N 33°23' W 118°22'2 5.5
2017-Sep-28 21:59N 33°22' W 118°20'6 5.4
2017-Sep-28 20:51N 33°23' W 118°13'12 7.6
2017-Sep-28 19:19N 33°30' W 118°01'3 7.7
2017-Sep-28 18:59N 33°31' W 117°59'4 7.5
2017-Sep-28 18:30N 33°34' W 117°55'  
2017-Sep-23 21:04N 33°26' W 117°46'0 7.3
2017-Sep-23 21:00N 33°25' W 117°46'4 7.9
2017-Sep-23 20:29N 33°22' W 117°43'4 8.2
2017-Sep-23 20:00N 33°18' W 117°41'  
Track history (hours):
 
Tides and Currents Weather Stations Pressure Air Temp Water Temp Dewpoint Dewpoint Depression Visibility Wind Speed Wind Dir Waves Ship Positions

Sabrina

Owner: Reynolds, Norman J, San Diego, CA. More information available from US FCC via Universal Licensing System and Coast Guard Vessel Documentation Center.

Last reported at 2017-Oct-01 23:56 UTC. Time now 2017-Nov-21 20:56 UTC.
Position N 32°41' W 117°18'.
Warning: this ship's position is 50 days out of date.

Length 16 m.

Type: Sailing vessel. MMSI: 367184090.

Date/timePositionNaut miles runAvg speedWind from/ knotsBaromVisibWave heightAir tempDewpointWater temp
2017-Oct-01 23:56N 32°41' W 117°18'3 7.9
2017-Oct-01 23:31N 32°44' W 117°21'4 8.0
2017-Oct-01 23:00N 32°47' W 117°25'4 8.1
2017-Oct-01 22:31N 32°50' W 117°28'4 8.2
2017-Oct-01 22:00N 32°53' W 117°32'4 8.0
2017-Oct-01 21:30N 32°55' W 117°35'4 7.9
2017-Oct-01 21:00N 32°58' W 117°38'4 8.0
2017-Oct-01 20:31N 33°01' W 117°41'4 7.9
2017-Oct-01 20:00N 33°04' W 117°45'  
2017-Sep-28 22:52N 33°23' W 118°22'0 0.0
2017-Sep-28 22:25N 33°23' W 118°22'2 5.5
2017-Sep-28 21:59N 33°22' W 118°20'6 5.4
2017-Sep-28 20:51N 33°23' W 118°13'12 7.6
2017-Sep-28 19:19N 33°30' W 118°01'3 7.7
2017-Sep-28 18:59N 33°31' W 117°59'4 7.5
2017-Sep-28 18:30N 33°34' W 117°55'  
2017-Sep-23 21:04N 33°26' W 117°46'0 7.3
2017-Sep-23 21:00N 33°25' W 117°46'4 7.9
2017-Sep-23 20:29N 33°22' W 117°43'4 8.2
2017-Sep-23 20:00N 33°18' W 117°41'  

Dump ship's entire track history